Time;durP1;ratioP1;P1;durP2;ratioP2;P2;SDS_P1;SDS_P2;PMS_P1;PMS_P2;Temp;Humidity;BMP_temperature;BMP_pressure;BME280_temperature;BME280_humidity;BME280_pressure;Samples;Min_cycle;Max_cycle;Signal;HPM_P1;HPM_P2
2022/07/18 00:00:13;;;;;;;12.38;5.20;;;;;;;22.76;100.00;102292.75;5072550;28;20055;-48
2022/07/18 00:02:39;;;;;;;12.45;5.63;;;;;;;22.71;100.00;102284.50;5069216;28;20163;-51
2022/07/18 00:05:05;;;;;;;9.98;5.10;;;;;;;22.61;100.00;102279.66;5067560;28;20044;-52
2022/07/18 00:07:30;;;;;;;13.27;5.40;;;;;;;22.63;100.00;102266.59;5069157;28;20033;-50
2022/07/18 00:09:56;;;;;;;15.63;5.38;;;;;;;22.54;100.00;102262.63;5070663;28;20035;-49
2022/07/18 00:12:21;;;;;;;11.95;6.32;;;;;;;22.50;100.00;102258.72;5068154;28;20044;-49
2022/07/18 00:14:47;;;;;;;18.67;5.57;;;;;;;22.49;100.00;102266.06;5073218;28;20032;-49
2022/07/18 00:17:12;;;;;;;11.65;5.72;;;;;;;22.46;100.00;102260.22;5073497;28;20044;-51
2022/07/18 00:19:38;;;;;;;14.00;5.80;;;;;;;22.39;100.00;102271.28;5069328;28;20029;-49
2022/07/18 00:22:04;;;;;;;13.20;5.93;;;;;;;22.25;100.00;102267.97;5067156;28;20043;-51
2022/07/18 00:24:31;;;;;;;13.40;6.40;;;;;;;22.39;100.00;102267.72;5071011;28;20048;-53
2022/07/18 00:26:57;;;;;;;14.03;6.10;;;;;;;22.42;100.00;102264.50;5072030;28;20033;-49
2022/07/18 00:29:23;;;;;;;12.75;6.05;;;;;;;22.34;100.00;102265.72;5075384;28;20032;-50
2022/07/18 00:31:48;;;;;;;12.98;5.70;;;;;;;22.33;100.00;102267.63;5069793;28;20029;-53
2022/07/18 00:34:14;;;;;;;12.38;5.68;;;;;;;22.29;100.00;102254.72;5074822;28;20036;-54
2022/07/18 00:36:39;;;;;;;14.48;6.50;;;;;;;22.24;100.00;102260.06;5073785;28;20032;-52
2022/07/18 00:39:05;;;;;;;12.67;5.60;;;;;;;22.25;100.00;102253.53;5071880;28;20049;-52
2022/07/18 00:41:31;;;;;;;14.82;5.45;;;;;;;22.25;100.00;102256.25;5074674;28;20026;-50
2022/07/18 00:43:57;;;;;;;12.60;5.57;;;;;;;22.17;100.00;102247.41;5075069;28;20073;-53
2022/07/18 00:46:24;;;;;;;11.83;5.50;;;;;;;22.17;100.00;102247.41;5076043;28;20033;-51
2022/07/18 00:48:51;;;;;;;10.40;5.50;;;;;;;22.20;100.00;102249.63;5069358;28;20047;-49
2022/07/18 00:51:17;;;;;;;9.77;5.17;;;;;;;22.07;100.00;102241.72;5070499;28;20057;-54
2022/07/18 00:53:43;;;;;;;13.07;5.50;;;;;;;22.00;100.00;102249.19;5067445;28;20064;-53
2022/07/18 00:56:09;;;;;;;11.97;5.27;;;;;;;22.04;100.00;102242.19;5072374;28;20033;-48
2022/07/18 00:58:35;;;;;;;10.63;5.28;;;;;;;21.99;100.00;102242.09;5071240;28;20071;-52
2022/07/18 01:03:45;;;;;;;9.30;4.70;;;;;;;21.98;100.00;102245.88;5071783;28;20033;-50
2022/07/18 01:06:10;;;;;;;8.75;4.55;;;;;;;21.89;100.00;102238.06;5073095;28;20033;-50
2022/07/18 01:08:37;;;;;;;8.70;4.88;;;;;;;21.87;100.00;102236.66;5076436;28;20043;-49
2022/07/18 01:11:03;;;;;;;14.10;4.77;;;;;;;21.82;100.00;102245.53;5068586;28;20039;-51
2022/07/18 01:13:29;;;;;;;;;;;;;;;21.83;100.00;102236.28;5073782;28;20033;-52
2022/07/18 01:15:54;;;;;;;12.43;4.80;;;;;;;21.85;100.00;102238.78;5071211;28;19923;-51
2022/07/18 01:18:20;;;;;;;9.50;4.50;;;;;;;21.85;100.00;102234.16;5074193;28;20032;-48
2022/07/18 01:20:45;;;;;;;7.82;4.50;;;;;;;21.84;100.00;102235.22;5071027;28;20037;-45
2022/07/18 01:23:11;;;;;;;13.63;4.78;;;;;;;21.78;100.00;102234.28;5073597;28;20041;-48
2022/07/18 01:25:37;;;;;;;9.57;4.53;;;;;;;21.69;100.00;102237.63;5071250;28;20041;-50
2022/07/18 01:28:02;;;;;;;12.25;4.80;;;;;;;21.66;100.00;102238.06;5074921;28;20034;-51
2022/07/18 01:30:28;;;;;;;;;;;;;;;21.60;100.00;102228.94;5070977;28;20071;-47
2022/07/18 01:32:58;;;;;;;8.23;4.10;;;;;;;21.59;100.00;102233.53;5072128;28;19913;-48
2022/07/18 01:35:26;;;;;;;11.20;4.53;;;;;;;21.58;100.00;102236.50;5071156;28;20036;-52
2022/07/18 01:37:54;;;;;;;8.37;4.40;;;;;;;21.58;100.00;102233.78;5072450;28;20047;-48
2022/07/18 01:40:19;;;;;;;13.90;5.13;;;;;;;21.43;100.00;102234.22;5070227;28;20036;-49
2022/07/18 01:42:45;;;;;;;9.63;4.28;;;;;;;21.51;100.00;102227.63;5071297;28;20052;-47
2022/07/18 01:45:11;;;;;;;14.93;4.57;;;;;;;21.48;100.00;102234.38;5071131;28;20044;-47
2022/07/18 01:47:36;;;;;;;;;;;;;;;21.48;100.00;102228.94;5072340;28;20029;-52
2022/07/18 01:50:03;;;;;;;11.50;4.27;;;;;;;21.37;100.00;102236.03;5070974;28;19936;-52
2022/07/18 01:52:29;;;;;;;11.50;4.60;;;;;;;21.30;100.00;102232.56;5071748;28;20036;-51
2022/07/18 01:54:54;;;;;;;11.25;4.72;;;;;;;21.25;100.00;102227.00;5073840;28;20036;-48
2022/07/18 01:57:20;;;;;;;8.63;4.13;;;;;;;21.28;100.00;102232.81;5071178;28;20029;-51
2022/07/18 01:59:45;;;;;;;10.67;4.70;;;;;;;21.27;100.00;102220.28;5073985;28;20041;-52
2022/07/18 02:02:11;;;;;;;11.52;4.55;;;;;;;21.20;100.00;102214.94;5073786;28;20305;-49
2022/07/18 02:07:20;;;;;;;14.97;4.23;;;;;;;21.08;100.00;102205.91;5075100;28;20104;-49
2022/07/18 02:09:46;;;;;;;10.15;4.78;;;;;;;21.01;100.00;102205.19;5074778;28;20029;-49
2022/07/18 02:12:11;;;;;;;11.77;4.65;;;;;;;21.02;100.00;102209.56;5079699;28;20055;-52
2022/07/18 02:14:37;;;;;;;7.50;3.93;;;;;;;21.08;100.00;102210.53;5073755;28;20033;-49
2022/07/18 02:17:03;;;;;;;7.93;4.20;;;;;;;21.00;100.00;102212.53;5074701;28;20041;-46
2022/07/18 02:19:28;;;;;;;9.80;4.45;;;;;;;21.05;100.00;102209.09;5077834;28;20036;-50
2022/07/18 02:21:53;;;;;;;8.50;4.05;;;;;;;21.01;100.00;102219.63;5074583;28;20025;-52
2022/07/18 02:24:19;;;;;;;8.70;4.10;;;;;;;20.99;100.00;102200.00;5075240;28;20047;-51
2022/07/18 02:26:44;;;;;;;8.20;4.30;;;;;;;20.96;100.00;102200.44;5073661;28;20289;-49
2022/07/18 02:29:10;;;;;;;7.15;3.75;;;;;;;20.93;100.00;102195.47;5077616;28;20029;-48
2022/07/18 02:31:36;;;;;;;11.80;4.85;;;;;;;20.84;100.00;102207.75;5073954;28;20029;-47
2022/07/18 02:34:09;;;;;;;8.68;5.07;;;;;;;20.72;100.00;102205.78;5075336;28;20040;-48
2022/07/18 02:36:40;;;;;;;10.37;4.90;;;;;;;20.75;100.00;102207.22;5075038;28;20059;-49
2022/07/18 02:39:07;;;;;;;10.00;4.33;;;;;;;20.76;100.00;102207.00;5073946;28;20029;-46
2022/07/18 02:41:33;;;;;;;9.63;4.10;;;;;;;20.79;100.00;102200.25;5077598;28;20266;-45
2022/07/18 02:43:59;;;;;;;;;;;;;;;20.75;100.00;102199.88;5075250;28;20053;-48
2022/07/18 02:46:25;;;;;;;12.70;4.47;;;;;;;20.74;100.00;102200.13;5078690;28;19923;-51
2022/07/18 02:48:51;;;;;;;18.60;4.70;;;;;;;20.70;100.00;102205.16;5072918;28;20040;-47
2022/07/18 02:51:16;;;;;;;10.77;4.93;;;;;;;20.69;100.00;102206.22;5072745;28;20037;-49
2022/07/18 02:53:42;;;;;;;21.08;4.80;;;;;;;20.67;100.00;102197.47;5071935;28;20056;-49
2022/07/18 02:56:08;;;;;;;9.82;4.20;;;;;;;20.65;100.00;102198.78;5073912;28;20028;-53
2022/07/18 02:58:33;;;;;;;11.33;5.20;;;;;;;20.65;100.00;102205.03;5076544;28;20032;-52
2022/07/18 03:00:59;;;;;;;8.48;4.53;;;;;;;20.61;100.00;102204.66;5076649;28;20094;-50
2022/07/18 03:03:25;;;;;;;9.82;4.22;;;;;;;20.56;100.00;102195.56;5074796;28;20029;-47
2022/07/18 03:05:51;;;;;;;10.77;4.07;;;;;;;20.57;100.00;102199.94;5071802;28;20097;-47
2022/07/18 03:08:16;;;;;;;12.48;4.22;;;;;;;20.53;100.00;102201.44;5073108;28;20048;-49
2022/07/18 03:10:41;;;;;;;9.63;4.40;;;;;;;20.54;100.00;102197.69;5075435;28;20049;-49
2022/07/18 03:13:07;;;;;;;9.90;4.05;;;;;;;20.53;100.00;102190.56;5072554;28;20262;-48
2022/07/18 03:15:33;;;;;;;7.68;4.35;;;;;;;20.57;100.00;102186.34;5072683;28;20040;-53
2022/07/18 03:17:59;;;;;;;7.25;4.20;;;;;;;20.50;100.00;102186.44;5073047;28;20028;-53
2022/07/18 03:20:24;;;;;;;8.60;4.35;;;;;;;20.53;100.00;102191.41;5076147;28;20044;-51
2022/07/18 03:22:50;;;;;;;7.97;4.13;;;;;;;20.49;100.00;102191.03;5074643;28;20035;-51
2022/07/18 03:25:15;;;;;;;9.10;4.18;;;;;;;20.48;100.00;102185.84;5079095;28;20102;-48
2022/07/18 03:27:41;;;;;;;10.23;4.53;;;;;;;20.43;100.00;102180.28;5074524;28;20048;-52
2022/07/18 03:30:07;;;;;;;10.10;4.40;;;;;;;20.37;100.00;102179.28;5070642;28;20086;-48
2022/07/18 03:32:32;;;;;;;8.68;4.32;;;;;;;20.38;100.00;102183.66;5069855;28;20269;-48
2022/07/18 03:34:57;;;;;;;12.23;4.45;;;;;;;20.35;100.00;102176.78;5069530;28;20037;-50
2022/07/18 03:37:23;;;;;;;9.88;4.13;;;;;;;20.37;100.00;102176.56;5071660;28;20105;-47
2022/07/18 03:39:48;;;;;;;11.88;4.63;;;;;;;20.39;100.00;102168.19;5071279;28;20041;-50
2022/07/18 03:42:14;;;;;;;6.57;4.10;;;;;;;20.35;100.00;102162.41;5071835;28;20040;-47
2022/07/18 03:44:40;;;;;;;9.75;4.15;;;;;;;20.26;100.00;102158.31;5075070;28;20035;-47
2022/07/18 03:47:05;;;;;;;10.77;4.60;;;;;;;20.24;100.00;102155.00;5070358;28;20048;-48
2022/07/18 03:49:30;;;;;;;11.70;3.90;;;;;;;20.22;100.00;102143.53;5079551;28;20033;-48
2022/07/18 03:51:56;;;;;;;9.70;4.80;;;;;;;20.23;100.00;102147.91;5074104;28;20294;-46
2022/07/18 03:54:22;;;;;;;11.80;4.80;;;;;;;20.23;100.00;102153.34;5069972;28;20063;-48
2022/07/18 03:56:49;;;;;;;9.43;4.53;;;;;;;20.27;100.00;102154.53;5070857;28;20040;-48
2022/07/18 03:59:15;;;;;;;8.20;4.55;;;;;;;20.29;100.00;102155.97;5065916;28;20269;-49
2022/07/18 04:01:40;;;;;;;10.90;4.30;;;;;;;20.30;100.00;102159.53;5070490;28;20057;-50
2022/07/18 04:04:06;;;;;;;10.88;4.50;;;;;;;20.30;100.00;102154.91;5075423;28;20037;-51
2022/07/18 04:06:31;;;;;;;11.15;3.95;;;;;;;20.24;100.00;102163.16;5079372;28;20044;-50
2022/07/18 04:08:57;;;;;;;16.23;4.40;;;;;;;20.21;100.00;102153.59;5072829;28;20067;-49
2022/07/18 04:11:23;;;;;;;12.30;4.13;;;;;;;20.17;100.00;102149.66;5077326;28;20288;-47
2022/07/18 04:13:52;;;;;;;;;;;;;;;20.27;100.00;102151.81;5078548;28;20087;-51
2022/07/18 04:16:18;;;;;;;13.00;4.60;;;;;;;20.30;100.00;102148.69;5075992;28;19912;-47
2022/07/18 04:18:44;;;;;;;29.30;13.52;;;;;;;20.30;100.00;102137.81;5072625;28;20266;-48
2022/07/18 04:21:10;;;;;;;25.10;13.10;;;;;;;20.38;100.00;102144.78;5069354;28;20037;-50
2022/07/18 04:23:36;;;;;;;33.72;17.45;;;;;;;20.43;100.00;102140.31;5069631;28;20052;-48
2022/07/18 04:26:03;;;;;;;28.70;13.25;;;;;;;20.43;100.00;102137.63;5067896;28;20033;-50
2022/07/18 04:28:29;;;;;;;28.00;13.43;;;;;;;20.45;100.00;102143.66;5069913;28;20029;-53
2022/07/18 04:30:55;;;;;;;;;;;;;;;20.44;100.00;102141.16;5070602;28;20047;-48
2022/07/18 04:33:22;;;;;;;33.40;15.93;;;;;;;20.44;100.00;102150.13;5075311;28;19920;-49
2022/07/18 04:35:49;;;;;;;22.73;10.63;;;;;;;20.50;100.00;102151.13;5072033;28;20300;-47
2022/07/18 04:38:15;;;;;;;34.77;16.93;;;;;;;20.52;100.00;102140.00;5077239;28;20033;-49
2022/07/18 04:40:41;;;;;;;29.52;12.02;;;;;;;20.46;100.00;102142.59;5079847;28;20093;-48
2022/07/18 04:43:07;;;;;;;19.95;8.60;;;;;;;20.46;100.00;102131.72;5075182;28;20052;-49
2022/07/18 04:45:34;;;;;;;11.98;5.55;;;;;;;20.43;100.00;102137.63;5075468;28;20100;-49
2022/07/18 04:48:01;;;;;;;37.83;17.10;;;;;;;20.49;100.00;102136.69;5071100;28;20107;-50
2022/07/18 04:50:29;;;;;;;27.53;12.67;;;;;;;20.53;100.00;102123.47;5076603;28;20056;-48
2022/07/18 04:52:56;;;;;;;44.63;18.53;;;;;;;20.57;100.00;102123.84;5066945;28;20029;-50
2022/07/18 04:55:24;;;;;;;19.50;10.17;;;;;;;20.60;100.00;102131.53;5070219;28;20028;-47
2022/07/18 04:57:51;;;;;;;34.17;15.53;;;;;;;20.64;100.00;102130.00;5071955;28;20040;-48
2022/07/18 05:00:19;;;;;;;24.23;10.90;;;;;;;20.68;100.00;102125.75;5073733;28;20052;-50
2022/07/18 05:02:48;;;;;;;12.43;5.77;;;;;;;20.70;100.00;102131.78;5075839;28;20057;-50
2022/07/18 05:05:16;;;;;;;17.10;8.77;;;;;;;20.75;100.00;102129.19;5077693;28;20053;-51
2022/07/18 05:07:42;;;;;;;13.93;5.63;;;;;;;20.56;100.00;102133.06;5077013;28;20029;-47
2022/07/18 05:10:10;;;;;;;10.60;6.00;;;;;;;20.60;100.00;102134.25;5072355;28;20033;-50
2022/07/18 05:12:38;;;;;;;13.70;5.77;;;;;;;20.62;100.00;102124.78;5068254;28;20037;-47
2022/07/18 05:15:11;;;;;;;11.23;5.13;;;;;;;20.70;100.00;102129.06;5068524;28;20033;-52
2022/07/18 05:17:38;;;;;;;15.13;6.33;;;;;;;20.55;100.00;102136.84;5073378;28;20032;-48
2022/07/18 05:20:07;;;;;;;;;;;;;;;20.61;100.00;102135.91;5076924;28;20052;-50
2022/07/18 05:22:34;;;;;;;18.63;5.07;;;;;;;20.65;100.00;102134.38;5069242;28;19912;-48
2022/07/18 05:24:59;;;;;;;;;;;;;;;20.53;100.00;102136.22;5072956;28;20036;-50
2022/07/18 05:27:25;;;;;;;15.20;6.23;;;;;;;20.62;100.00;102132.94;5071918;28;19912;-51
2022/07/18 05:29:50;;;;;;;12.15;6.18;;;;;;;20.74;100.00;102135.69;5071345;28;20089;-50
2022/07/18 05:32:16;;;;;;;11.52;6.28;;;;;;;20.84;100.00;102146.03;5071386;28;20072;-46
2022/07/18 05:34:41;;;;;;;15.82;5.65;;;;;;;20.80;100.00;102142.13;5070190;28;20064;-53
2022/07/18 05:37:07;;;;;;;12.93;6.28;;;;;;;20.88;100.00;102143.69;5065997;28;20044;-48
2022/07/18 05:39:33;;;;;;;13.45;5.82;;;;;;;20.91;100.00;102141.34;5068557;28;20041;-47
2022/07/18 05:41:59;;;;;;;12.93;6.05;;;;;;;20.89;100.00;102140.75;5072641;28;20034;-47
2022/07/18 05:44:24;;;;;;;18.35;7.65;;;;;;;21.01;100.00;102148.94;5072838;28;20064;-50
2022/07/18 05:46:50;;;;;;;16.45;5.65;;;;;;;20.97;100.00;102150.44;5071988;28;20124;-52
2022/07/18 05:49:15;;;;;;;14.68;6.90;;;;;;;21.01;100.00;102148.94;5073973;28;20029;-49
2022/07/18 05:51:41;;;;;;;20.23;6.82;;;;;;;21.05;100.00;102147.38;5073615;28;20045;-47
2022/07/18 05:54:06;;;;;;;22.05;6.03;;;;;;;21.19;100.00;102145.28;5077317;28;20091;-50
2022/07/18 05:56:32;;;;;;;19.35;6.22;;;;;;;21.26;100.00;102149.75;5077195;28;20058;-51
2022/07/18 05:58:57;;;;;;;19.52;6.80;;;;;;;21.29;100.00;102139.25;5080569;28;20029;-48
2022/07/18 06:01:24;;;;;;;14.45;6.25;;;;;;;21.31;100.00;102147.16;5071644;28;20033;-46
2022/07/18 06:03:50;;;;;;;16.60;6.00;;;;;;;21.31;100.00;102136.28;5074236;28;20037;-51
2022/07/18 06:06:16;;;;;;;14.35;6.75;;;;;;;21.32;100.00;102138.78;5073712;28;20041;-49
2022/07/18 06:08:41;;;;;;;13.10;6.72;;;;;;;21.39;100.00;102135.94;5073938;28;20055;-48
2022/07/18 06:11:08;;;;;;;15.18;6.30;;;;;;;21.41;100.00;102130.25;5071782;28;20025;-50
2022/07/18 06:13:39;;;;;;;14.40;6.63;;;;;;;21.20;100.00;102127.88;5074265;28;20047;-47
2022/07/18 06:16:06;;;;;;;24.13;8.10;;;;;;;21.26;100.00;102133.44;5070134;28;20056;-52
2022/07/18 06:18:34;;;;;;;13.87;6.40;;;;;;;21.37;100.00;102119.03;5072744;28;20036;-49
2022/07/18 06:21:01;;;;;;;12.90;6.40;;;;;;;21.15;100.00;102108.72;5072745;28;20040;-50
2022/07/18 06:23:27;;;;;;;14.90;7.03;;;;;;;21.14;100.00;102108.94;5069971;28;20033;-48
2022/07/18 06:25:53;;;;;;;16.88;7.40;;;;;;;21.17;100.00;102105.75;5073094;28;20070;-49
2022/07/18 06:28:18;;;;;;;16.13;7.25;;;;;;;21.12;100.00;102102.94;5070535;28;20067;-47
2022/07/18 06:30:44;;;;;;;13.23;7.03;;;;;;;21.29;100.00;102106.59;5070495;28;20142;-52
2022/07/18 06:33:10;;;;;;;13.73;7.55;;;;;;;21.49;100.00;102108.13;5072044;28;20052;-50
2022/07/18 06:35:36;;;;;;;14.48;7.20;;;;;;;21.36;100.00;102111.94;5067367;28;20109;-47
2022/07/18 06:38:01;;;;;;;14.18;6.82;;;;;;;21.54;100.00;102118.28;5070036;28;20029;-53
2022/07/18 06:40:26;;;;;;;16.80;7.20;;;;;;;21.59;100.00;102121.94;5073841;28;20028;-47
2022/07/18 06:42:52;;;;;;;14.45;6.35;;;;;;;21.73;100.00;102128.00;5074888;28;20052;-49
2022/07/18 06:45:18;;;;;;;15.93;7.17;;;;;;;21.94;100.00;102135.78;5073818;28;20064;-50
2022/07/18 06:47:44;;;;;;;16.27;7.00;;;;;;;22.02;100.00;102124.50;5073431;28;20028;-48
2022/07/18 06:50:11;;;;;;;;;;;;;;;21.97;100.00;102119.75;5072374;28;20042;-50
2022/07/18 06:52:41;;;;;;;9.33;6.00;;;;;;;21.99;100.00;102116.81;5072203;28;19913;-50
2022/07/18 06:55:07;;;;;;;21.67;7.00;;;;;;;21.94;100.00;102117.53;5069381;28;20021;-48
2022/07/18 06:57:33;;;;;;;12.53;6.40;;;;;;;22.05;100.00;102113.94;5071145;28;20115;-51
2022/07/18 06:59:59;;;;;;;12.25;7.07;;;;;;;22.20;100.00;102110.69;5073765;28;20036;-52
2022/07/18 07:02:24;;;;;;;12.57;6.28;;;;;;;22.27;100.00;102113.28;5073746;28;20029;-47
2022/07/18 07:04:50;;;;;;;12.67;5.90;;;;;;;22.54;100.00;102122.75;5074177;28;20040;-50
2022/07/18 07:07:16;;;;;;;19.67;5.65;;;;;;;22.49;100.00;102126.25;5072456;28;20071;-47
2022/07/18 07:09:41;;;;;;;10.00;5.45;;;;;;;22.51;100.00;102132.28;5074045;28;20044;-52
2022/07/18 07:12:07;;;;;;;14.32;5.97;;;;;;;22.60;100.00;102138.13;5072047;28;20041;-53
2022/07/18 07:14:32;;;;;;;12.73;5.65;;;;;;;22.68;100.00;102132.28;5070329;28;20041;-50
2022/07/18 07:16:58;;;;;;;13.40;5.28;;;;;;;22.73;100.00;102129.66;5066540;28;20066;-51
2022/07/18 07:19:24;;;;;;;14.90;5.97;;;;;;;22.82;100.00;102121.06;5069580;28;20047;-51
2022/07/18 07:21:50;;;;;;;12.30;6.40;;;;;;;23.13;100.00;102122.38;5068432;28;20090;-51
2022/07/18 07:24:15;;;;;;;14.02;6.35;;;;;;;23.32;100.00;102124.88;5071937;28;20045;-52
2022/07/18 07:26:40;;;;;;;11.00;6.03;;;;;;;23.37;100.00;102115.94;5069161;28;20079;-54
2022/07/18 07:29:06;;;;;;;14.38;6.70;;;;;;;23.42;100.00;102113.28;5070399;28;20037;-51
2022/07/18 07:31:31;;;;;;;10.50;6.13;;;;;;;23.43;100.00;102106.72;5068567;28;20045;-51
2022/07/18 07:33:57;;;;;;;11.38;5.95;;;;;;;23.45;100.00;102096.38;5069723;28;20037;-52
2022/07/18 07:36:23;;;;;;;17.90;5.68;;;;;;;23.62;100.00;102097.16;5073723;28;20036;-48
2022/07/18 07:38:49;;;;;;;;;;;;;;;23.67;100.00;102096.41;5072251;28;20048;-49
2022/07/18 07:41:15;;;;;;;15.27;5.90;;;;;;;23.85;100.00;102095.25;5072075;28;20165;-49
2022/07/18 07:43:41;;;;;;;16.43;5.60;;;;;;;23.92;100.00;102089.59;5063824;28;20052;-47
2022/07/18 07:46:06;;;;;;;13.68;5.15;;;;;;;23.98;100.00;102091.31;5068341;28;20075;-46
2022/07/18 07:48:32;;;;;;;12.75;5.45;;;;;;;24.06;100.00;102096.34;5069480;28;20043;-46
2022/07/18 07:50:58;;;;;;;10.77;4.15;;;;;;;24.29;100.00;102099.84;5067162;28;20033;-50
2022/07/18 07:53:23;;;;;;;10.32;4.30;;;;;;;24.16;100.00;102101.09;5070521;28;20055;-51
2022/07/18 07:55:48;;;;;;;10.38;4.18;;;;;;;24.40;100.00;102103.50;5075055;28;20033;-51
2022/07/18 07:58:15;;;;;;;;;;;;;;;24.70;100.00;102093.94;5070297;28;20091;-46
2022/07/18 08:00:40;;;;;;;11.13;4.83;;;;;;;24.80;100.00;102103.34;5074441;28;19946;-45
2022/07/18 08:03:07;;;;;;;10.48;4.80;;;;;;;24.92;100.00;102101.25;5072790;28;20037;-49
2022/07/18 08:05:45;;;;;;;10.77;5.17;;;;;;;24.94;100.00;102106.47;5074823;28;20045;-51
2022/07/18 08:08:11;;;;;;;11.87;5.07;;;;;;;25.13;100.00;102104.94;5069846;28;20114;-52
2022/07/18 08:10:37;;;;;;;12.80;5.40;;;;;;;25.04;100.00;102101.88;5074647;28;20037;-48
2022/07/18 08:13:02;;;;;;;12.48;5.82;;;;;;;25.04;100.00;102110.09;5075159;28;20038;-47
2022/07/18 08:15:28;;;;;;;;;;;;;;;25.11;100.00;102117.25;5075298;28;20037;-50
2022/07/18 08:17:54;;;;;;;15.87;6.20;;;;;;;25.34;100.00;102116.84;5075198;28;20027;-50
2022/07/18 08:20:20;;;;;;;;;;;;;;;25.53;96.30;102119.16;5065884;28;20030;-50
2022/07/18 08:22:59;;;;;;;19.60;7.05;;;;;;;25.77;94.59;102121.47;5072869;28;19919;-49
2022/07/18 08:25:27;;;;;;;12.83;6.07;;;;;;;25.88;93.66;102122.31;5066583;28;20639;-46
2022/07/18 08:27:53;;;;;;;16.90;6.20;;;;;;;25.90;92.24;102120.97;5072584;28;20108;-49
2022/07/18 08:30:19;;;;;;;;;;;;;;;25.93;90.59;102119.59;5075889;28;20024;-51
2022/07/18 08:32:45;;;;;;;20.17;7.33;;;;;;;26.04;90.14;102121.28;5069934;28;19920;-48
2022/07/18 08:35:10;;;;;;;;;;;;;;;26.03;86.04;102116.06;5077596;28;20066;-49
2022/07/18 08:37:36;;;;;;;15.00;7.97;;;;;;;26.19;86.47;102111.50;5073051;28;19931;-51
2022/07/18 08:40:01;;;;;;;;;;;;;;;25.98;83.62;102107.84;5076989;28;20609;-48
2022/07/18 08:42:28;;;;;;;11.70;7.53;;;;;;;26.23;80.58;102107.13;5072121;28;19912;-48
2022/07/18 08:44:56;;;;;;;15.07;6.87;;;;;;;26.24;83.42;102102.44;5072969;28;20040;-46
2022/07/18 08:47:25;;;;;;;18.60;9.40;;;;;;;26.29;84.84;102106.03;5070576;28;20071;-47
2022/07/18 08:49:52;;;;;;;18.53;7.70;;;;;;;26.80;82.97;102106.34;5067391;28;20051;-50
2022/07/18 08:52:19;;;;;;;12.10;7.13;;;;;;;26.62;78.85;102108.53;5067510;28;20032;-48
2022/07/18 08:54:45;;;;;;;21.57;7.77;;;;;;;26.72;78.37;102105.75;5070307;28;20132;-49
2022/07/18 08:57:10;;;;;;;;;;;;;;;26.74;75.63;102114.53;5072191;28;20036;-50
2022/07/18 08:59:35;;;;;;;18.63;7.57;;;;;;;26.92;75.77;102101.41;5071455;28;19956;-48
2022/07/18 09:02:01;;;;;;;;;;;;;;;26.93;77.78;102099.47;5073421;28;20043;-47
2022/07/18 09:04:44;;;;;;;15.37;6.73;;;;;;;27.15;69.43;102110.13;5067989;28;19935;-49
2022/07/18 09:07:22;;;;;;;16.63;7.87;;;;;;;27.41;71.10;102110.06;5071793;28;20025;-47
2022/07/18 09:09:57;;;;;;;16.17;8.43;;;;;;;27.33;73.60;102108.72;5072602;28;20044;-51
2022/07/18 09:12:23;;;;;;;14.50;7.90;;;;;;;27.40;72.47;102112.00;5070603;28;20037;-50
2022/07/18 09:14:48;;;;;;;;;;;;;;;27.47;67.65;102117.22;5076608;28;20064;-47
2022/07/18 09:17:18;;;;;;;12.37;8.40;;;;;;;27.67;68.83;102110.00;5076263;28;20205;-52
2022/07/18 09:20:08;;;;;;;15.30;7.80;;;;;;;27.82;66.56;102117.38;5073998;28;20088;-50
2022/07/18 09:22:36;;;;;;;16.10;8.77;;;;;;;28.26;66.80;102111.09;5071406;28;20037;-47
2022/07/18 09:25:10;;;;;;;11.53;8.20;;;;;;;28.40;64.29;102122.28;5071110;28;20033;-49
2022/07/18 09:27:41;;;;;;;13.23;8.67;;;;;;;28.58;63.78;102111.66;5073166;28;20075;-49
2022/07/18 09:30:25;;;;;;;15.33;8.57;;;;;;;28.96;63.38;102114.66;5072965;28;20034;-50
2022/07/18 09:33:02;;;;;;;12.17;7.13;;;;;;;29.19;61.13;102109.47;5073263;28;20071;-49
2022/07/18 09:35:36;;;;;;;17.25;8.35;;;;;;;29.50;60.69;102117.41;5074003;28;20062;-50
2022/07/18 09:38:10;;;;;;;15.70;9.07;;;;;;;29.85;59.11;102109.81;5075639;28;20029;-52
2022/07/18 09:40:39;;;;;;;14.40;8.30;;;;;;;30.17;55.35;102112.97;5072847;28;20043;-49
2022/07/18 09:43:10;;;;;;;13.35;8.68;;;;;;;30.12;56.79;102113.88;5080063;28;20053;-53
2022/07/18 09:45:38;;;;;;;10.85;6.30;;;;;;;30.32;51.19;102109.16;5078753;28;20029;-54
2022/07/18 09:48:06;;;;;;;13.50;7.10;;;;;;;30.43;51.95;102118.09;5080668;28;20037;-50
2022/07/18 09:50:49;;;;;;;13.38;7.95;;;;;;;30.54;51.56;102118.75;5073039;28;20040;-50
2022/07/18 09:53:26;;;;;;;17.65;7.68;;;;;;;30.64;49.67;102117.78;5069506;28;20064;-51
2022/07/18 09:55:55;;;;;;;12.77;7.05;;;;;;;30.80;49.60;102118.34;5070774;28;20044;-48
2022/07/18 09:58:25;;;;;;;17.63;9.52;;;;;;;31.46;50.09;102118.22;5073240;28;20101;-48
2022/07/18 10:00:52;;;;;;;15.18;7.68;;;;;;;32.17;46.65;102115.03;5076452;28;20035;-49
2022/07/18 10:03:19;;;;;;;16.27;8.90;;;;;;;33.11;45.05;102121.03;5071037;28;20061;-49
2022/07/18 10:05:48;;;;;;;13.23;9.85;;;;;;;33.82;44.16;102117.31;5071708;28;20036;-49
2022/07/18 10:08:16;;;;;;;21.38;11.98;;;;;;;34.68;41.43;102121.53;5071544;28;20035;-49
2022/07/18 10:10:44;;;;;;;20.15;12.60;;;;;;;35.41;39.34;102117.84;5072608;28;20052;-50
2022/07/18 10:13:11;;;;;;;26.63;13.30;;;;;;;35.80;38.94;102122.50;5072961;28;20036;-50
2022/07/18 10:15:43;;;;;;;21.27;13.57;;;;;;;35.64;38.78;102119.53;5077026;28;20089;-52
2022/07/18 10:18:12;;;;;;;21.70;13.43;;;;;;;35.77;38.51;102114.84;5079327;28;20071;-52
2022/07/18 10:20:44;;;;;;;18.92;12.45;;;;;;;36.05;38.05;102120.72;5076195;28;20020;-49
2022/07/18 10:23:27;;;;;;;21.05;14.68;;;;;;;36.76;36.55;102117.25;5072756;28;20082;-51
2022/07/18 10:26:10;;;;;;;22.17;12.77;;;;;;;37.15;36.13;102124.13;5066572;28;20097;-48
2022/07/18 10:28:35;;;;;;;22.48;13.80;;;;;;;37.73;34.85;102122.34;5068509;28;20075;-46
2022/07/18 10:31:15;;;;;;;18.48;13.85;;;;;;;37.99;34.37;102121.13;5070635;28;20037;-47
2022/07/18 10:33:41;;;;;;;24.40;15.57;;;;;;;38.18;33.58;102117.69;5073102;28;20063;-47
2022/07/18 10:36:12;;;;;;;19.30;12.05;;;;;;;38.26;32.54;102124.25;5073712;28;20036;-50
2022/07/18 10:38:39;;;;;;;21.08;11.48;;;;;;;38.76;32.31;102121.22;5071777;28;20040;-47
2022/07/18 10:41:08;;;;;;;16.83;12.02;;;;;;;39.40;31.09;102129.56;5073010;28;20031;-51
2022/07/18 10:43:42;;;;;;;20.88;12.98;;;;;;;39.48;30.38;102122.16;5067308;28;20061;-48
2022/07/18 10:46:09;;;;;;;24.42;14.95;;;;;;;39.33;30.41;102121.00;5074409;28;20502;-48
2022/07/18 10:48:35;;;;;;;15.85;11.75;;;;;;;39.77;28.88;102117.16;5070516;28;20048;-51
2022/07/18 10:51:09;;;;;;;15.95;11.98;;;;;;;40.30;28.09;102116.69;5068737;28;20029;-51
2022/07/18 10:53:53;;;;;;;21.67;11.15;;;;;;;40.45;27.26;102128.16;5073565;28;20064;-50
2022/07/18 10:56:39;;;;;;;17.95;10.45;;;;;;;40.18;26.88;102122.44;5072115;28;20048;-52
2022/07/18 10:59:14;;;;;;;;;;;;;;;40.07;26.48;102125.81;5066348;28;20041;-49
2022/07/18 11:01:55;;;;;;;18.05;9.45;;;;;;;39.75;26.43;102117.56;5071855;28;19920;-50
2022/07/18 11:04:26;;;;;;;15.73;10.52;;;;;;;40.00;26.15;102114.47;5070150;28;20092;-50
2022/07/18 11:07:13;;;;;;;23.30;10.32;;;;;;;40.61;25.97;102114.84;5078123;28;20384;-51
2022/07/18 11:09:44;;;;;;;17.83;9.80;;;;;;;41.23;25.43;102118.66;5070147;28;20049;-49
2022/07/18 11:12:30;;;;;;;12.90;8.63;;;;;;;41.26;25.12;102121.50;5074331;28;20037;-49
2022/07/18 11:15:12;;;;;;;15.60;9.15;;;;;;;41.22;25.24;102112.22;5071524;28;20064;-52
2022/07/18 11:17:58;;;;;;;10.27;6.75;;;;;;;41.21;24.95;102110.63;5073735;28;20060;-47
2022/07/18 11:20:45;;;;;;;6.68;3.83;;;;;;;40.78;24.19;102107.94;5067172;28;20115;-47
2022/07/18 11:23:21;;;;;;;6.40;2.20;;;;;;;41.67;22.63;102103.22;5072088;28;20048;-48